Time;durP1;ratioP1;P1;durP2;ratioP2;P2;SDS_P1;SDS_P2;PMS_P1;PMS_P2;Temp;Humidity;BMP_temperature;BMP_pressure;BME280_temperature;BME280_humidity;BME280_pressure;Samples;Min_cycle;Max_cycle;Signal;HPM_P1;HPM_P2
2021/08/13 00:01:07;;;;;;;10.13;9.23;;;;;;;18.77;100.00;101210.53;5018188;28;20257;-78
2021/08/13 00:03:38;;;;;;;10.48;9.38;;;;;;;18.64;100.00;101212.25;5034585;28;20187;-78
2021/08/13 00:06:04;;;;;;;9.15;8.30;;;;;;;18.64;100.00;101209.50;5042369;28;20239;-79
2021/08/13 00:08:31;;;;;;;9.15;8.35;;;;;;;18.73;100.00;101204.84;5023913;28;20192;-78
2021/08/13 00:10:57;;;;;;;8.75;7.65;;;;;;;18.70;100.00;101208.22;5023358;28;20307;-78
2021/08/13 00:13:25;;;;;;;9.25;8.35;;;;;;;18.86;100.00;101211.41;5026785;28;20208;-79
2021/08/13 00:15:52;;;;;;;9.55;7.43;;;;;;;18.92;100.00;101203.53;5059784;28;20318;-78
2021/08/13 00:18:21;;;;;;;8.98;8.27;;;;;;;18.88;100.00;101218.22;5023604;28;20215;-78
2021/08/13 00:20:51;;;;;;;9.02;8.10;;;;;;;18.94;100.00;101212.28;5056109;28;20338;-78
2021/08/13 00:23:17;;;;;;;8.65;7.85;;;;;;;18.87;100.00;101226.81;5043736;28;20566;-78
2021/08/13 00:25:42;;;;;;;8.25;7.55;;;;;;;18.88;100.00;101234.75;5043127;28;20228;-78
2021/08/13 00:28:08;;;;;;;8.23;7.43;;;;;;;18.86;100.00;101230.69;5039467;28;20191;-79
2021/08/13 00:30:33;;;;;;;7.35;6.65;;;;;;;18.86;100.00;101238.94;5039781;28;20231;-79
2021/08/13 00:33:02;;;;;;;8.45;6.65;;;;;;;19.02;100.00;101241.84;5042554;28;20599;-79
2021/08/13 00:35:27;;;;;;;7.78;7.07;;;;;;;18.95;100.00;101241.47;5044426;28;20219;-79
2021/08/13 00:37:55;;;;;;;7.53;6.68;;;;;;;19.13;100.00;101242.44;5043229;28;20246;-78
2021/08/13 00:40:20;;;;;;;8.45;7.60;;;;;;;19.11;100.00;101234.47;5026786;28;20177;-79
2021/08/13 00:42:49;;;;;;;6.78;6.18;;;;;;;19.23;100.00;101231.13;5030588;28;20240;-79
2021/08/13 00:45:19;;;;;;;7.57;6.95;;;;;;;19.29;100.00;101233.47;5063779;28;20200;-79
2021/08/13 00:48:03;;;;;;;8.02;6.88;;;;;;;19.27;100.00;101236.53;5035027;28;20622;-79
2021/08/13 00:50:38;;;;;;;7.88;7.15;;;;;;;19.29;100.00;101247.25;5018328;28;20223;-78
2021/08/13 00:53:06;;;;;;;7.90;7.00;;;;;;;19.13;100.00;101247.94;5044718;28;20212;-79
2021/08/13 00:55:32;;;;;;;9.00;7.65;;;;;;;19.11;100.00;101258.47;5027946;28;20308;-78
2021/08/13 00:58:05;;;;;;;7.47;6.88;;;;;;;19.10;100.00;101254.06;5030504;28;20879;-79
2021/08/13 01:00:51;;;;;;;8.63;7.82;;;;;;;19.07;100.00;101255.53;5037169;28;20322;-79
2021/08/13 01:03:19;;;;;;;8.75;7.95;;;;;;;18.97;100.00;101249.44;5045929;28;20179;-79
2021/08/13 01:05:53;;;;;;;8.75;7.82;;;;;;;19.09;100.00;101247.75;5044708;28;20224;-78
2021/08/13 01:08:23;;;;;;;12.75;8.70;;;;;;;19.06;100.00;101237.34;5030364;28;20199;-78
2021/08/13 01:11:18;;;;;;;9.35;8.45;;;;;;;19.12;100.00;101236.13;5027338;28;20223;-79
2021/08/13 01:13:52;;;;;;;9.48;8.45;;;;;;;19.16;100.00;101242.63;5041200;28;20216;-79
2021/08/13 01:16:20;;;;;;;8.80;8.00;;;;;;;19.02;100.00;101238.31;5048560;28;20233;-79
2021/08/13 01:18:51;;;;;;;10.00;9.10;;;;;;;19.01;100.00;101236.66;5047718;28;20203;-79
2021/08/13 01:21:40;;;;;;;9.23;8.25;;;;;;;18.86;100.00;101247.22;5013627;28;20220;-77
2021/08/13 01:24:14;;;;;;;8.55;7.75;;;;;;;18.92;100.00;101242.09;5067934;28;20577;-78
2021/08/13 01:26:56;;;;;;;8.93;8.13;;;;;;;18.89;100.00;101242.72;5043222;28;20254;-78
2021/08/13 01:29:44;;;;;;;8.90;8.00;;;;;;;18.84;100.00;101244.75;5052946;28;20184;-78
2021/08/13 01:32:16;;;;;;;8.95;8.25;;;;;;;18.71;100.00;101250.31;5039222;28;20220;-80
2021/08/13 01:34:46;;;;;;;8.73;7.93;;;;;;;18.73;100.00;101259.91;5082438;28;20265;-79
2021/08/13 01:37:15;;;;;;;9.60;8.63;;;;;;;18.63;100.00;101251.88;5049444;28;20221;-79
2021/08/13 01:39:41;;;;;;;8.68;7.88;;;;;;;18.66;100.00;101256.78;5030829;28;20247;-78
2021/08/13 01:42:09;;;;;;;8.95;8.15;;;;;;;18.76;100.00;101258.47;5044415;28;20235;-79
2021/08/13 01:44:38;;;;;;;9.82;8.68;;;;;;;18.71;100.00;101251.13;5048101;28;20180;-79
2021/08/13 01:47:05;;;;;;;9.25;8.45;;;;;;;18.63;100.00;101254.63;5047479;28;20217;-79
2021/08/13 01:49:33;;;;;;;8.13;7.38;;;;;;;18.66;100.00;101253.19;5034172;28;20176;-80
2021/08/13 01:51:59;;;;;;;9.32;8.15;;;;;;;18.56;100.00;101243.22;5030313;28;20228;-78
2021/08/13 01:54:25;;;;;;;8.25;7.57;;;;;;;18.42;100.00;101252.66;5030275;28;20206;-79
2021/08/13 01:56:51;;;;;;;8.02;7.32;;;;;;;18.17;100.00;101250.47;5035367;28;20231;-79
2021/08/13 01:59:20;;;;;;;8.20;7.50;;;;;;;18.02;100.00;101247.19;5047744;28;20176;-78
2021/08/13 02:01:47;;;;;;;8.50;7.70;;;;;;;17.98;100.00;101248.91;5032206;28;20247;-79
2021/08/13 02:04:21;;;;;;;8.57;7.78;;;;;;;17.96;100.00;101240.16;5040700;28;20164;-80
2021/08/13 02:06:54;;;;;;;8.52;7.72;;;;;;;17.98;100.00;101240.66;5055874;28;20215;-79
2021/08/13 02:09:20;;;;;;;9.68;8.77;;;;;;;17.99;100.00;101241.50;5033304;28;20188;-79
2021/08/13 02:11:46;;;;;;;8.63;7.90;;;;;;;18.00;100.00;101243.09;5037818;28;20283;-80
2021/08/13 02:14:18;;;;;;;10.73;8.30;;;;;;;17.92;100.00;101239.13;5053374;28;20204;-81
2021/08/13 02:16:48;;;;;;;9.70;8.20;;;;;;;17.86;100.00;101234.06;5037749;28;20266;-79
2021/08/13 02:19:35;;;;;;;10.85;9.77;;;;;;;17.82;100.00;101241.28;5038177;28;20235;-80
2021/08/13 02:22:02;;;;;;;9.30;8.32;;;;;;;17.76;100.00;101237.00;5037809;28;20223;-78
2021/08/13 02:24:31;;;;;;;10.23;9.15;;;;;;;17.85;100.00;101240.66;5037089;28;20176;-79
2021/08/13 02:27:04;;;;;;;10.30;9.15;;;;;;;17.70;100.00;101234.66;5058367;28;20223;-79
2021/08/13 02:29:34;;;;;;;8.60;7.80;;;;;;;17.59;100.00;101242.28;5073144;28;20190;-80
2021/08/13 02:32:07;;;;;;;8.73;7.82;;;;;;;17.67;100.00;101236.06;5048707;28;20219;-79
2021/08/13 02:34:37;;;;;;;7.75;7.05;;;;;;;17.67;100.00;101233.31;5048063;28;20219;-78
2021/08/13 02:37:04;;;;;;;9.18;7.68;;;;;;;17.65;100.00;101230.06;5055487;28;20227;-78
2021/08/13 02:39:53;;;;;;;8.57;7.68;;;;;;;17.61;100.00;101234.53;5047627;28;20184;-78
2021/08/13 02:42:28;;;;;;;8.10;7.40;;;;;;;17.44;100.00;101228.84;5050624;28;20234;-79
2021/08/13 02:44:56;;;;;;;8.48;7.78;;;;;;;17.43;100.00;101229.13;5028249;28;20171;-79
2021/08/13 02:47:25;;;;;;;7.43;6.82;;;;;;;17.38;100.00;101230.06;5058012;28;20285;-80
2021/08/13 02:49:53;;;;;;;8.25;7.45;;;;;;;17.36;100.00;101229.53;5055708;28;20176;-80
2021/08/13 02:52:34;;;;;;;8.35;7.63;;;;;;;17.37;100.00;101228.41;5016574;28;20224;-78
2021/08/13 02:55:04;;;;;;;9.45;8.57;;;;;;;17.40;100.00;101227.00;5035179;28;20695;-80
2021/08/13 02:57:38;;;;;;;9.13;8.30;;;;;;;17.31;100.00;101226.06;5027392;28;20214;-80
2021/08/13 03:00:06;;;;;;;8.93;7.75;;;;;;;17.40;100.00;101227.00;5060152;28;20437;-78
2021/08/13 03:02:32;;;;;;;7.82;7.03;;;;;;;17.35;100.00;101230.66;5043729;28;20223;-79
2021/08/13 03:04:58;;;;;;;7.60;6.82;;;;;;;17.28;100.00;101234.09;5040769;28;20176;-79
2021/08/13 03:07:28;;;;;;;7.57;6.88;;;;;;;17.29;100.00;101235.72;5063238;28;20303;-79
2021/08/13 03:09:57;;;;;;;7.10;6.50;;;;;;;17.05;100.00;101229.50;5059824;28;20187;-79
2021/08/13 03:12:25;;;;;;;7.85;7.07;;;;;;;16.99;100.00;101234.28;5028834;28;20300;-79
2021/08/13 03:14:53;;;;;;;7.65;6.95;;;;;;;17.05;100.00;101229.50;5042491;28;20229;-79
2021/08/13 03:17:18;;;;;;;7.80;7.10;;;;;;;17.00;100.00;101235.09;5043350;28;20200;-80
2021/08/13 03:19:44;;;;;;;7.20;6.60;;;;;;;17.03;100.00;101234.50;5034952;28;20184;-79
2021/08/13 03:22:12;;;;;;;7.93;7.20;;;;;;;17.11;100.00;101231.06;5038033;28;20246;-78
2021/08/13 03:24:40;;;;;;;7.85;7.13;;;;;;;17.04;100.00;101234.19;5043465;28;20188;-79
2021/08/13 03:27:09;;;;;;;6.93;6.32;;;;;;;17.02;100.00;101232.88;5049878;28;20227;-79
2021/08/13 03:29:37;;;;;;;7.03;6.13;;;;;;;17.20;100.00;101232.84;5053956;28;20207;-80
2021/08/13 03:32:04;;;;;;;6.30;5.80;;;;;;;17.08;100.00;101239.91;5070165;28;20230;-78
2021/08/13 03:34:30;;;;;;;7.22;6.57;;;;;;;17.12;100.00;101240.94;5077544;28;20214;-79
2021/08/13 03:36:58;;;;;;;6.70;6.10;;;;;;;16.93;100.00;101231.94;5052767;28;20216;-79
2021/08/13 03:39:24;;;;;;;6.80;6.25;;;;;;;16.97;100.00;101233.75;5048888;28;20181;-78
2021/08/13 03:41:52;;;;;;;7.15;6.40;;;;;;;17.06;100.00;101226.47;5058369;28;20229;-79
2021/08/13 03:44:18;;;;;;;6.57;5.97;;;;;;;17.10;100.00;101243.16;5046535;28;20183;-80
2021/08/13 03:46:49;;;;;;;6.70;6.20;;;;;;;16.99;100.00;101248.00;5048878;28;20216;-79
2021/08/13 03:49:18;;;;;;;6.38;5.88;;;;;;;17.01;100.00;101250.44;5025220;28;20184;-79
2021/08/13 03:51:43;;;;;;;5.93;5.40;;;;;;;16.80;100.00;101245.59;5050410;28;20223;-78
2021/08/13 03:54:11;;;;;;;6.53;6.03;;;;;;;16.81;100.00;101252.72;5026337;28;20694;-80
2021/08/13 03:56:37;;;;;;;6.30;5.80;;;;;;;16.76;100.00;101242.63;5056289;28;20215;-78
2021/08/13 03:59:03;;;;;;;6.80;6.10;;;;;;;16.93;100.00;101248.41;5039949;28;20192;-79
2021/08/13 04:01:36;;;;;;;6.38;5.78;;;;;;;16.91;100.00;101242.38;5052584;28;20200;-79
2021/08/13 04:04:01;;;;;;;6.35;5.75;;;;;;;16.84;100.00;101252.94;5052620;28;20195;-79
2021/08/13 04:06:28;;;;;;;6.55;5.95;;;;;;;16.71;100.00;101255.63;5074939;28;20207;-79
2021/08/13 04:08:53;;;;;;;6.53;6.03;;;;;;;16.90;100.00;101250.91;5055824;28;20198;-79
2021/08/13 04:11:22;;;;;;;7.60;6.70;;;;;;;16.92;100.00;101252.25;5035969;28;20228;-80
2021/08/13 04:13:49;;;;;;;7.45;6.85;;;;;;;16.95;100.00;101240.69;5023739;28;20681;-80
2021/08/13 04:16:15;;;;;;;8.27;7.55;;;;;;;16.93;100.00;101236.59;5044779;28;20226;-79
2021/08/13 04:18:46;;;;;;;8.20;7.50;;;;;;;16.80;100.00;101238.19;5034883;28;20175;-80
2021/08/13 04:21:13;;;;;;;7.40;6.80;;;;;;;16.82;100.00;101227.72;5039686;28;20227;-79
2021/08/13 04:23:43;;;;;;;7.00;6.30;;;;;;;16.81;100.00;101237.06;5046030;28;20183;-79
2021/08/13 04:26:12;;;;;;;7.05;6.35;;;;;;;16.86;100.00;101239.72;5045443;28;20242;-79
2021/08/13 04:28:41;;;;;;;7.20;6.50;;;;;;;16.77;100.00;101246.19;5018594;28;20183;-80
2021/08/13 04:31:07;;;;;;;7.05;6.45;;;;;;;16.82;100.00;101235.94;5065663;28;20232;-79
2021/08/13 04:33:34;;;;;;;7.03;6.30;;;;;;;16.83;100.00;101232.09;5048981;28;20222;-78
2021/08/13 04:36:05;;;;;;;6.45;5.95;;;;;;;17.00;100.00;101229.63;5057233;28;20219;-78
2021/08/13 04:38:30;;;;;;;7.47;6.82;;;;;;;17.04;100.00;101238.88;5030991;28;20195;-78
2021/08/13 04:40:58;;;;;;;7.50;6.75;;;;;;;17.32;100.00;101240.59;5062641;28;20215;-77
2021/08/13 04:43:24;;;;;;;7.50;6.80;;;;;;;17.43;100.00;101240.13;5030188;28;20191;-80
2021/08/13 04:45:53;;;;;;;7.22;6.60;;;;;;;17.55;100.00;101240.47;5047810;28;20216;-79
2021/08/13 04:48:22;;;;;;;7.43;6.82;;;;;;;17.54;100.00;101242.38;5049169;28;20263;-78
2021/08/13 04:50:47;;;;;;;7.20;6.45;;;;;;;17.54;100.00;101228.63;5046955;28;20242;-78
2021/08/13 04:53:15;;;;;;;6.85;6.20;;;;;;;17.53;100.00;101240.75;5057957;28;20186;-79
2021/08/13 04:55:41;;;;;;;6.95;6.15;;;;;;;17.47;100.00;101249.38;5040169;28;20211;-79
2021/08/13 04:58:11;;;;;;;6.28;5.78;;;;;;;17.44;100.00;101244.50;5047924;28;20185;-78
2021/08/13 05:00:40;;;;;;;5.68;5.18;;;;;;;17.41;100.00;101256.91;5030150;28;20262;-79
2021/08/13 05:03:14;;;;;;;6.10;5.50;;;;;;;17.34;100.00;101242.75;5049868;28;20171;-78
2021/08/13 05:05:45;;;;;;;5.75;5.20;;;;;;;17.41;100.00;101247.84;5052056;28;20223;-80
2021/08/13 05:08:11;;;;;;;5.28;4.80;;;;;;;17.45;100.00;101246.13;5083756;28;20219;-78
2021/08/13 05:10:40;;;;;;;4.85;4.45;;;;;;;17.63;100.00;101243.28;5035136;28;20231;-78
2021/08/13 05:13:09;;;;;;;4.65;4.25;;;;;;;17.63;100.00;101254.28;5050593;28;20221;-78
2021/08/13 05:15:38;;;;;;;4.88;4.47;;;;;;;17.74;100.00;101252.97;5049789;28;20200;-78
2021/08/13 05:18:05;;;;;;;5.10;4.60;;;;;;;17.94;100.00;101255.31;5056491;28;20185;-81
2021/08/13 05:20:33;;;;;;;5.28;4.88;;;;;;;18.10;100.00;101253.94;5057472;28;20315;-79
2021/08/13 05:23:06;;;;;;;5.68;5.18;;;;;;;18.18;100.00;101256.75;5074501;28;20185;-80
2021/08/13 05:25:32;;;;;;;6.22;5.65;;;;;;;18.28;100.00;101262.88;5060540;28;20226;-80
2021/08/13 05:28:08;;;;;;;6.38;5.80;;;;;;;18.31;100.00;101262.25;5089467;28;20191;-79
2021/08/13 05:30:36;;;;;;;7.43;6.72;;;;;;;18.36;100.00;101256.63;5064870;28;20294;-79
2021/08/13 05:33:04;;;;;;;7.05;6.45;;;;;;;18.53;100.00;101270.56;5031698;28;20188;-79
2021/08/13 05:35:36;;;;;;;8.23;6.85;;;;;;;18.61;100.00;101267.09;5029566;28;20227;-79
2021/08/13 05:38:05;;;;;;;9.05;8.35;;;;;;;18.58;100.00;101268.50;5044504;28;20567;-79
2021/08/13 05:40:34;;;;;;;10.05;8.60;;;;;;;18.57;100.00;101268.81;5013052;28;20219;-79
2021/08/13 05:43:02;;;;;;;11.07;10.05;;;;;;;18.51;100.00;101273.66;5049425;28;20463;-78
2021/08/13 05:45:32;;;;;;;10.98;9.98;;;;;;;18.73;100.00;101272.84;5044637;28;20215;-80
2021/08/13 05:47:58;;;;;;;10.13;9.27;;;;;;;18.84;100.00;101271.50;5011993;28;20198;-78
2021/08/13 05:50:26;;;;;;;10.25;9.30;;;;;;;18.91;100.00;101273.50;5028338;28;20587;-78
2021/08/13 05:52:58;;;;;;;11.27;10.18;;;;;;;18.97;100.00;101271.47;5046563;28;20179;-79
2021/08/13 05:55:30;;;;;;;11.27;10.10;;;;;;;19.03;100.00;101264.72;5087675;28;20310;-79
2021/08/13 05:57:58;;;;;;;10.38;9.43;;;;;;;19.08;100.00;101272.84;5030801;28;20184;-79
2021/08/13 06:00:26;;;;;;;10.77;9.80;;;;;;;19.14;100.00;101266.91;5028962;28;20198;-79
2021/08/13 06:02:59;;;;;;;11.20;10.23;;;;;;;19.29;100.00;101266.53;5029213;28;20187;-77
2021/08/13 06:05:29;;;;;;;12.45;10.65;;;;;;;19.50;100.00;101259.34;5028769;28;20227;-79
2021/08/13 06:08:00;;;;;;;10.75;9.65;;;;;;;19.62;100.00;101251.31;5044452;28;20215;-78
2021/08/13 06:10:27;;;;;;;10.30;9.05;;;;;;;19.61;100.00;101246.91;5046899;28;20227;-79
2021/08/13 06:12:53;;;;;;;10.07;9.18;;;;;;;19.85;100.00;101257.31;5054974;28;20204;-79
2021/08/13 06:15:22;;;;;;;9.95;8.98;;;;;;;20.02;100.00;101243.56;5037507;28;20263;-78
2021/08/13 06:17:47;;;;;;;9.23;8.45;;;;;;;20.12;100.00;101243.25;5055916;28;20198;-80
2021/08/13 06:20:19;;;;;;;10.00;8.90;;;;;;;20.34;100.00;101248.66;5051289;28;20180;-78
2021/08/13 06:22:52;;;;;;;9.50;8.60;;;;;;;20.47;100.00;101245.75;5041563;28;20171;-80
2021/08/13 06:25:18;;;;;;;9.23;8.43;;;;;;;20.68;100.00;101244.84;5065019;28;20179;-81
2021/08/13 06:27:46;;;;;;;9.55;8.65;;;;;;;20.66;100.00;101244.38;5055394;28;20168;-79
2021/08/13 06:30:17;;;;;;;8.90;8.00;;;;;;;20.77;100.00;101245.66;5054451;28;20176;-80
2021/08/13 06:32:42;;;;;;;9.00;8.20;;;;;;;20.85;100.00;101237.34;5056356;28;20217;-80
2021/08/13 06:35:13;;;;;;;10.93;9.93;;;;;;;20.76;100.00;101240.47;5053559;28;20210;-78
2021/08/13 06:38:00;;;;;;;10.30;9.35;;;;;;;20.92;100.00;101236.88;5054956;28;20163;-79
2021/08/13 06:40:26;;;;;;;10.70;9.02;;;;;;;20.72;100.00;101245.81;5051957;28;20245;-79
2021/08/13 06:42:54;;;;;;;9.95;8.95;;;;;;;20.89;100.00;101256.88;5070086;28;20188;-79
2021/08/13 06:45:27;;;;;;;10.05;9.02;;;;;;;21.02;100.00;101247.59;5073372;28;20194;-80
2021/08/13 06:47:55;;;;;;;10.98;9.10;;;;;;;20.91;100.00;101246.28;5073579;28;20192;-77
2021/08/13 06:50:24;;;;;;;10.35;9.30;;;;;;;21.00;100.00;101244.34;5044060;28;20180;-78
2021/08/13 06:52:52;;;;;;;10.48;9.57;;;;;;;21.09;100.00;101245.16;5033150;28;20192;-78
2021/08/13 06:55:20;;;;;;;10.02;9.13;;;;;;;21.18;100.00;101238.47;5051161;28;20204;-78
2021/08/13 06:57:54;;;;;;;9.23;8.40;;;;;;;21.56;100.00;101253.22;5040318;28;20180;-78
2021/08/13 07:00:21;;;;;;;11.18;9.52;;;;;;;21.63;100.00;101260.69;5024375;28;20288;-76
2021/08/13 07:02:49;;;;;;;9.70;8.70;;;;;;;21.71;100.00;101264.56;5035774;28;20270;-76
2021/08/13 07:05:16;;;;;;;10.10;9.05;;;;;;;21.96;100.00;101263.63;5015221;28;20255;-77
2021/08/13 07:07:42;;;;;;;10.70;9.60;;;;;;;22.15;100.00;101249.06;5033796;28;20184;-77
2021/08/13 07:10:09;;;;;;;9.45;8.65;;;;;;;22.30;100.00;101254.03;5059813;28;20183;-77
2021/08/13 07:12:40;;;;;;;9.82;8.98;;;;;;;22.41;100.00;101241.41;5019639;28;20183;-77
2021/08/13 07:15:07;;;;;;;16.63;9.48;;;;;;;22.43;100.00;101245.50;5054551;28;20236;-77
2021/08/13 07:17:36;;;;;;;8.50;7.70;;;;;;;22.62;100.00;101247.78;5015607;28;20721;-78
2021/08/13 07:20:05;;;;;;;8.30;7.40;;;;;;;22.82;100.00;101243.06;5017678;28;20180;-77
2021/08/13 07:22:33;;;;;;;8.70;7.80;;;;;;;22.83;100.00;101253.00;5021177;28;20243;-76
2021/08/13 07:25:07;;;;;;;8.60;7.70;;;;;;;22.83;100.00;101249.41;5038987;28;20181;-77
2021/08/13 07:27:37;;;;;;;7.63;6.78;;;;;;;22.85;100.00;101252.66;5068383;28;20219;-77
2021/08/13 07:30:04;;;;;;;7.60;6.80;;;;;;;22.92;100.00;101248.22;5027483;28;20223;-77
2021/08/13 07:32:30;;;;;;;7.75;6.95;;;;;;;23.09;100.00;101253.59;5016562;28;20727;-74
2021/08/13 07:34:57;;;;;;;7.05;6.25;;;;;;;23.06;100.00;101259.84;4996338;28;20694;-76
2021/08/13 07:37:32;;;;;;;8.43;6.85;;;;;;;23.22;100.00;101261.66;4996021;28;20718;-77
2021/08/13 07:40:00;;;;;;;7.50;6.78;;;;;;;23.52;100.00;101270.66;5000462;28;20188;-77
2021/08/13 07:42:27;;;;;;;7.63;6.82;;;;;;;23.59;99.79;101252.31;5016247;28;20709;-79
2021/08/13 07:44:57;;;;;;;7.45;6.60;;;;;;;23.58;98.15;101245.94;4989315;28;20172;-78
2021/08/13 07:47:25;;;;;;;8.00;6.50;;;;;;;23.88;96.19;101243.78;4999261;28;20218;-75
2021/08/13 07:49:54;;;;;;;8.10;6.20;;;;;;;23.76;95.75;101246.56;5015984;28;20203;-75
2021/08/13 07:52:22;;;;;;;7.72;6.93;;;;;;;23.93;93.80;101241.59;5013265;28;20604;-75
2021/08/13 07:54:51;;;;;;;6.85;6.20;;;;;;;23.94;95.78;101237.69;5017923;28;20299;-76
2021/08/13 07:57:21;;;;;;;7.60;6.35;;;;;;;24.16;94.77;101238.00;5049230;28;20219;-77
2021/08/13 07:59:47;;;;;;;8.38;6.18;;;;;;;24.50;91.85;101234.75;5053254;28;20180;-76
2021/08/13 08:02:16;;;;;;;6.95;5.38;;;;;;;24.63;89.51;101239.94;5017902;28;20219;-76
2021/08/13 08:04:44;;;;;;;7.03;5.80;;;;;;;24.47;88.40;101239.06;5018184;28;20837;-76
2021/08/13 08:07:09;;;;;;;6.63;5.68;;;;;;;24.42;87.27;101239.28;5051744;28;20247;-73
2021/08/13 08:09:35;;;;;;;5.55;5.05;;;;;;;24.60;87.48;101251.78;5017245;28;20575;-77
2021/08/13 08:12:00;;;;;;;7.00;5.97;;;;;;;24.62;83.51;101252.22;5053255;28;20251;-75
2021/08/13 08:14:31;;;;;;;6.40;5.70;;;;;;;24.78;82.97;101253.13;5052689;28;20216;-77
2021/08/13 08:16:56;;;;;;;6.43;5.55;;;;;;;24.87;85.92;101256.56;5046477;28;20309;-77
2021/08/13 08:19:22;;;;;;;10.23;5.60;;;;;;;25.18;79.34;101241.66;5046931;28;20229;-77
2021/08/13 08:21:47;;;;;;;7.25;6.32;;;;;;;25.19;80.69;101254.38;5047720;28;20258;-77
2021/08/13 08:24:17;;;;;;;8.05;5.72;;;;;;;25.49;79.59;101247.25;5043229;28;20192;-78
2021/08/13 08:26:48;;;;;;;5.97;5.47;;;;;;;25.28;80.51;101246.69;5063474;28;20287;-78
2021/08/13 08:29:13;;;;;;;7.30;6.30;;;;;;;25.36;75.51;101253.25;5039305;28;20191;-77
2021/08/13 08:31:39;;;;;;;8.20;6.15;;;;;;;25.41;77.81;101255.78;5030656;28;20212;-79
2021/08/13 08:34:04;;;;;;;6.57;5.93;;;;;;;25.81;75.00;101260.91;5015833;28;20212;-78
2021/08/13 08:36:30;;;;;;;7.25;5.85;;;;;;;25.82;76.92;101256.13;5022520;28;20713;-82
2021/08/13 08:38:57;;;;;;;6.90;5.47;;;;;;;25.88;78.46;101251.91;5020297;28;20175;-79
2021/08/13 08:41:23;;;;;;;6.28;5.75;;;;;;;26.24;73.33;101256.06;5017081;28;20693;-78
2021/08/13 08:43:49;;;;;;;6.97;5.50;;;;;;;26.08;76.43;101244.09;5001483;28;20187;-79
2021/08/13 08:46:19;;;;;;;6.47;5.88;;;;;;;26.00;73.50;101250.66;5039752;28;20207;-74
2021/08/13 08:48:49;;;;;;;7.35;6.63;;;;;;;25.86;72.16;101262.59;5034974;28;20278;-80
2021/08/13 08:51:15;;;;;;;6.90;6.30;;;;;;;25.97;72.22;101265.31;5033656;28;20223;-79
2021/08/13 08:53:43;;;;;;;7.47;6.15;;;;;;;25.97;72.07;101270.09;5033285;28;20311;-78
2021/08/13 08:56:08;;;;;;;7.18;6.47;;;;;;;26.27;70.45;101263.72;5036216;28;20278;-80
2021/08/13 08:58:36;;;;;;;7.43;6.43;;;;;;;26.31;70.97;101265.41;5022472;28;20172;-80
2021/08/13 09:01:02;;;;;;;7.15;6.50;;;;;;;26.41;69.19;101253.72;5020995;28;20220;-78
2021/08/13 09:03:28;;;;;;;6.82;5.70;;;;;;;26.39;70.06;101255.22;5056172;28;20191;-79
2021/08/13 09:05:53;;;;;;;6.65;6.05;;;;;;;26.51;70.91;101247.56;5071686;28;20227;-79
2021/08/13 09:08:19;;;;;;;7.35;6.28;;;;;;;26.37;69.24;101247.25;5040261;28;20270;-79
2021/08/13 09:10:45;;;;;;;7.38;6.68;;;;;;;26.46;67.75;101244.25;5023076;28;20245;-81
2021/08/13 09:13:10;;;;;;;8.02;7.22;;;;;;;26.61;65.14;101254.53;5004357;28;20195;-78
2021/08/13 09:15:40;;;;;;;8.25;6.93;;;;;;;26.52;65.58;101248.34;5019559;28;20693;-81
2021/08/13 09:18:13;;;;;;;6.82;6.10;;;;;;;26.63;66.90;101254.97;5038870;28;20524;-79
2021/08/13 09:20:45;;;;;;;7.45;6.65;;;;;;;26.90;66.78;101252.84;5055300;28;20238;-80
2021/08/13 09:23:11;;;;;;;9.48;6.63;;;;;;;26.99;65.44;101255.44;5036067;28;20215;-79
2021/08/13 09:25:39;;;;;;;7.32;6.32;;;;;;;27.06;65.06;101256.38;5054770;28;20246;-79
2021/08/13 09:28:43;;;;;;;7.55;6.38;;;;;;;27.26;62.96;101253.22;5035733;28;20664;-79
2021/08/13 09:31:11;;;;;;;6.38;5.78;;;;;;;27.19;63.17;101247.50;5036201;28;20236;-78
2021/08/13 09:33:37;;;;;;;7.57;6.10;;;;;;;27.33;60.33;101247.78;5048086;28;20249;-77
2021/08/13 09:36:04;;;;;;;8.50;6.05;;;;;;;27.14;61.56;101244.19;5028967;28;20279;-78
2021/08/13 09:38:30;;;;;;;6.60;6.00;;;;;;;27.11;60.53;101244.94;5031392;28;20215;-80
2021/08/13 09:41:07;;;;;;;7.90;6.13;;;;;;;27.03;60.59;101245.16;5029868;28;20278;-78
2021/08/13 09:43:32;;;;;;;6.47;5.88;;;;;;;26.93;61.71;101252.13;5049006;28;20180;-78
2021/08/13 09:46:06;;;;;;;7.00;6.30;;;;;;;26.86;59.50;101253.97;5016680;28;20600;-77
2021/08/13 09:48:32;;;;;;;6.13;5.53;;;;;;;27.03;62.74;101251.53;5028007;28;20181;-76
2021/08/13 09:50:57;;;;;;;6.63;5.72;;;;;;;27.19;59.78;101253.06;5051820;28;20305;-79
2021/08/13 09:53:25;;;;;;;7.55;6.32;;;;;;;27.14;58.73;101249.78;5034123;28;20583;-78
2021/08/13 09:55:50;;;;;;;7.47;6.05;;;;;;;27.34;58.83;101240.22;5040807;28;20293;-78
2021/08/13 09:58:25;;;;;;;6.90;6.30;;;;;;;27.75;58.68;101241.03;5028622;28;20176;-79
2021/08/13 10:00:55;;;;;;;6.38;5.80;;;;;;;27.77;58.54;101251.84;5045594;28;20223;-80
2021/08/13 10:03:21;;;;;;;7.05;6.35;;;;;;;28.11;55.93;101246.88;5036902;28;20268;-79
2021/08/13 10:06:05;;;;;;;7.95;6.10;;;;;;;27.97;58.96;101245.81;5019469;28;20220;-78
2021/08/13 10:08:44;;;;;;;7.00;5.72;;;;;;;28.51;55.46;101233.13;5052120;28;20180;-78
2021/08/13 10:11:13;;;;;;;8.20;5.97;;;;;;;28.59;57.12;101230.06;5055624;28;20227;-77
2021/08/13 10:13:44;;;;;;;8.05;6.00;;;;;;;28.22;54.41;101242.25;5019823;28;20216;-78
2021/08/13 10:16:23;;;;;;;6.90;5.78;;;;;;;27.86;55.07;101250.41;5003186;28;20243;-79
2021/08/13 10:18:55;;;;;;;6.30;5.70;;;;;;;27.69;57.24;101256.50;5054997;28;20724;-78
2021/08/13 10:21:23;;;;;;;7.30;5.60;;;;;;;27.69;56.76;101247.28;5021208;28;20230;-76
2021/08/13 10:23:53;;;;;;;6.53;5.93;;;;;;;27.89;56.75;101244.91;5020225;28;20175;-77
2021/08/13 10:26:22;;;;;;;6.72;6.03;;;;;;;28.11;57.79;101240.47;5033263;28;20244;-77
2021/08/13 10:28:50;;;;;;;6.90;6.20;;;;;;;28.14;56.75;101243.34;5036825;28;20211;-80
2021/08/13 10:31:20;;;;;;;6.90;5.60;;;;;;;28.34;56.04;101240.06;5038321;28;20273;-79
2021/08/13 10:33:55;;;;;;;7.93;6.28;;;;;;;27.95;56.43;101248.19;5018998;28;20699;-79
2021/08/13 10:36:21;;;;;;;8.07;6.28;;;;;;;28.09;56.37;101259.63;5018779;28;20243;-79
2021/08/13 10:38:50;;;;;;;5.90;5.40;;;;;;;28.11;55.13;101237.69;5021452;28;20345;-77
2021/08/13 10:41:24;;;;;;;6.68;6.03;;;;;;;27.95;57.62;101231.41;5037885;28;20231;-78
2021/08/13 10:43:53;;;;;;;6.30;5.70;;;;;;;28.09;57.38;101235.25;5019140;28;20179;-77
2021/08/13 10:46:24;;;;;;;6.32;5.72;;;;;;;28.12;55.50;101230.94;5034467;28;20219;-78
2021/08/13 10:48:52;;;;;;;7.07;5.95;;;;;;;28.26;58.13;101236.72;5020225;28;20218;-77
2021/08/13 10:51:28;;;;;;;7.40;6.50;;;;;;;28.32;56.34;101234.06;5019909;28;20610;-76
2021/08/13 10:54:08;;;;;;;6.82;5.88;;;;;;;28.18;56.01;101235.00;5021831;28;20696;-78
2021/08/13 10:56:38;;;;;;;6.68;6.07;;;;;;;28.03;56.42;101233.97;5049323;28;20270;-77
2021/08/13 10:59:10;;;;;;;6.57;5.88;;;;;;;27.84;58.41;101224.00;5021085;28;20196;-78
2021/08/13 11:02:08;;;;;;;7.38;6.20;;;;;;;28.00;56.72;101214.31;5039895;28;20219;-74
2021/08/13 11:04:44;;;;;;;7.75;5.93;;;;;;;28.02;58.93;101221.19;5037425;28;20613;-78
2021/08/13 11:07:10;;;;;;;6.70;6.10;;;;;;;28.35;55.05;101213.72;5020560;28;20223;-78
2021/08/13 11:09:36;;;;;;;6.80;6.10;;;;;;;28.11;57.33;101207.75;5020292;28;20355;-80
2021/08/13 11:12:16;;;;;;;6.65;6.05;;;;;;;28.42;56.27;101208.22;5021367;28;20216;-78
2021/08/13 11:14:54;;;;;;;8.23;6.40;;;;;;;28.54;55.44;101205.22;5069142;28;20774;-79
2021/08/13 11:17:44;;;;;;;7.20;6.15;;;;;;;28.78;53.75;101208.38;5049337;28;20666;-75
2021/08/13 11:20:17;;;;;;;7.47;6.20;;;;;;;28.75;56.42;101199.94;5021475;28;20564;-78
2021/08/13 11:23:00;;;;;;;7.32;6.28;;;;;;;29.01;55.97;101208.25;5038997;28;20180;-79
2021/08/13 11:25:49;;;;;;;7.32;6.60;;;;;;;29.13;53.45;101201.22;5038796;28;20222;-76
2021/08/13 11:28:31;;;;;;;6.90;6.30;;;;;;;28.96;53.70;101198.22;5054127;28;20229;-74
2021/08/13 11:31:01;;;;;;;7.40;6.43;;;;;;;28.71;52.98;101194.28;5036827;28;20227;-77